Larnaca, Cyprus
Current Conditions -  °F | °C
As of 2:30 AM on Saturday 25 Oct 2014 (Local Time) from LCLK Reporting Station
Few Clouds Few Clouds  
Wind Chill: 63°   Ceiling: Unl
Heat Index: 63°   Visibility: 6mi
Dew Point: 57°   Wind: 3mph
Humidity: 82%   Direction: 340°NNW
Pressure: 30"   Gusts: NA
Location:  34.92°N, 33.63°E
Report Text: LCLK 242330Z 34003KT 310V040 9999 FEW030 17/14 Q1016 NOSIG
Loading
Personal Weather Stations






























Interactive Weather Map
Tropical Storm Tracking
New forecast layout! Learn more

10-Day Weather Forecast

Advertisements
Track Severe Weather on mobile